createdAt,value
2023-03-06T00:01:34.005Z,99608.97
2023-03-06T00:04:07.448Z,99607.38
2023-03-06T00:06:38.689Z,99612.75
2023-03-06T00:09:06.723Z,99607.66
2023-03-06T00:11:40.200Z,99612.25
2023-03-06T00:14:08.666Z,99612.56
2023-03-06T00:16:42.544Z,99617.16
2023-03-06T00:19:17.448Z,99615.53
2023-03-06T00:21:51.079Z,99610.16
2023-03-06T00:24:27.843Z,99612.34
2023-03-06T00:26:59.123Z,99609.16
2023-03-06T00:29:35.334Z,99609.94
2023-03-06T00:32:03.482Z,99613.47
2023-03-06T00:34:34.067Z,99614.25
2023-03-06T00:37:02.250Z,99602.19
2023-03-06T00:39:36.098Z,99599.50
2023-03-06T00:42:06.684Z,99601.69
2023-03-06T00:44:40.192Z,99604.37
2023-03-06T00:47:08.383Z,99604.37
2023-03-06T00:49:40.009Z,99600.44
2023-03-06T00:52:11.314Z,99599.63
2023-03-06T00:54:42.360Z,99596.16
2023-03-06T00:57:13.017Z,99594.25
2023-03-06T00:59:43.593Z,99589.47
2023-03-06T01:02:15.163Z,99584.09
2023-03-06T01:04:51.914Z,99571.75
2023-03-06T01:07:23.075Z,99583.59
2023-03-06T01:09:53.626Z,99585.50
2023-03-06T01:12:23.408Z,99571.25
2023-03-06T01:14:52.537Z,99566.97
2023-03-06T01:17:24.227Z,99572.38
2023-03-06T01:19:55.080Z,99570.78
2023-03-06T01:22:22.657Z,99569.97
2023-03-06T01:24:51.223Z,99563.78
2023-03-06T01:27:24.445Z,99561.59
2023-03-06T01:29:52.067Z,99563.78
2023-03-06T01:32:21.820Z,99560.63
2023-03-06T01:34:49.360Z,99557.94
2023-03-06T01:37:19.560Z,99552.06
2023-03-06T01:39:50.310Z,99550.47
2023-03-06T01:42:25.093Z,99553.16
2023-03-06T01:45:14.174Z,99546.50
2023-03-06T01:47:42.008Z,99545.69
2023-03-06T01:50:18.670Z,99546.50
2023-03-06T01:52:49.608Z,99546.81
2023-03-06T01:55:31.831Z,99547.91
2023-03-06T01:58:11.537Z,99540.94
2023-03-06T02:00:40.092Z,99537.44
2023-03-06T02:03:14.598Z,99539.34
2023-03-06T02:05:46.016Z,99537.75
2023-03-06T02:08:23.665Z,99532.38
2023-03-06T02:11:14.711Z,99523.81
2023-03-06T02:13:48.583Z,99519.25
2023-03-06T02:16:17.958Z,99526.50
2023-03-06T02:18:57.384Z,99531.41
2023-03-06T02:21:37.527Z,99526.03
2023-03-06T02:24:38.212Z,99523.66
2023-03-06T02:27:14.167Z,99520.97
2023-03-06T02:29:42.331Z,99520.16
2023-03-06T02:32:13.097Z,99517.47
2023-03-06T02:34:50.393Z,99515.88
2023-03-06T02:37:21.937Z,99520.78
2023-03-06T02:40:01.073Z,99511.09
2023-03-06T02:42:32.326Z,99511.91
2023-03-06T02:45:02.789Z,99507.34
2023-03-06T02:47:33.642Z,99513.31
2023-03-06T02:50:04.697Z,99506.34
2023-03-06T02:52:37.964Z,99512.53
2023-03-06T02:55:05.982Z,99514.41
2023-03-06T02:57:36.346Z,99510.12
2023-03-06T03:00:13.296Z,99515.50
2023-03-06T03:02:49.482Z,99505.84
2023-03-06T03:05:19.900Z,99508.06
2023-03-06T03:07:53.961Z,99512.34
2023-03-06T03:10:25.236Z,99511.03
2023-03-06T03:12:58.928Z,99506.78
2023-03-06T03:15:27.526Z,99502.19
2023-03-06T03:17:57.530Z,99511.34
2023-03-06T03:20:30.746Z,99504.41
2023-03-06T03:23:01.921Z,99513.53
2023-03-06T03:25:29.234Z,99509.28
2023-03-06T03:27:57.550Z,99505.47
2023-03-06T03:30:31.206Z,99495.31
2023-03-06T03:32:59.076Z,99495.31
2023-03-06T03:35:26.565Z,99492.63
2023-03-06T03:37:56.740Z,99497.53
2023-03-06T03:40:43.998Z,99487.25
2023-03-06T03:43:14.633Z,99487.91
2023-03-06T03:45:45.927Z,99490.59
2023-03-06T03:48:18.738Z,99487.09
2023-03-06T03:50:51.619Z,99485.22
2023-03-06T03:53:22.993Z,99478.53
2023-03-06T03:55:54.772Z,99477.75
2023-03-06T03:58:28.410Z,99469.69
2023-03-06T04:01:00.714Z,99478.84
2023-03-06T04:03:31.308Z,99469.19
2023-03-06T04:05:59.047Z,99463.81
2023-03-06T04:08:30.601Z,99459.25
2023-03-06T04:11:02.103Z,99463.81
2023-03-06T04:13:39.328Z,99460.66
2023-03-06T04:16:10.539Z,99454.75
2023-03-06T04:18:41.960Z,99453.69
2023-03-06T04:21:10.373Z,99454.75
2023-03-06T04:23:41.310Z,99449.41
2023-03-06T04:26:15.757Z,99453.97
2023-03-06T04:28:57.263Z,99447.34
2023-03-06T04:31:31.337Z,99448.12
2023-03-06T04:34:00.943Z,99442.75
2023-03-06T04:36:33.944Z,99437.66
2023-03-06T04:39:01.845Z,99444.94
2023-03-06T04:41:29.713Z,99441.12
2023-03-06T04:43:57.636Z,99437.19
2023-03-06T04:46:30.709Z,99440.97
2023-03-06T04:49:06.462Z,99437.47
2023-03-06T04:51:39.404Z,99440.97
2023-03-06T04:54:11.018Z,99436.22
2023-03-06T04:56:43.158Z,99435.41
2023-03-06T04:59:13.062Z,99430.03
2023-03-06T05:01:40.824Z,99419.09
2023-03-06T05:04:11.519Z,99418.00
2023-03-06T05:06:40.746Z,99406.72
2023-03-06T05:09:13.367Z,99408.94
2023-03-06T05:11:40.733Z,99405.16
2023-03-06T05:14:12.440Z,99406.25
2023-03-06T05:16:43.353Z,99404.66
2023-03-06T05:19:17.432Z,99392.81
2023-03-06T05:21:48.006Z,99391.53
2023-03-06T05:24:15.477Z,99384.56
2023-03-06T05:26:47.862Z,99387.25
2023-03-06T05:29:20.292Z,99387.25
2023-03-06T05:31:47.906Z,99395.62
2023-03-06T05:34:16.986Z,99394.84
2023-03-06T05:36:45.135Z,99394.84
2023-03-06T05:39:15.580Z,99401.00
2023-03-06T05:41:45.747Z,99404.47
2023-03-06T05:44:13.674Z,99406.37
2023-03-06T05:46:41.166Z,99406.37
2023-03-06T05:49:12.945Z,99410.12
2023-03-06T05:51:42.455Z,99413.94
2023-03-06T05:54:17.482Z,99407.44
2023-03-06T05:56:48.150Z,99410.12
2023-03-06T05:59:16.093Z,99395.91
2023-03-06T06:01:50.338Z,99395.91
2023-03-06T06:04:21.040Z,99399.41
2023-03-06T06:06:59.181Z,99390.25
2023-03-06T06:09:30.804Z,99394.22
2023-03-06T06:12:03.353Z,99392.81
2023-03-06T06:14:36.417Z,99392.81
2023-03-06T06:17:07.338Z,99392.22
2023-03-06T06:19:37.104Z,99397.00
2023-03-06T06:22:13.229Z,99401.28
2023-03-06T06:24:46.939Z,99405.56
2023-03-06T06:27:18.532Z,99405.56
2023-03-06T06:29:54.218Z,99401.75
2023-03-06T06:32:22.253Z,99404.44
2023-03-06T06:34:53.636Z,99401.75
2023-03-06T06:37:21.276Z,99408.75
2023-03-06T06:39:54.879Z,99406.53
2023-03-06T06:42:39.004Z,99410.78
2023-03-06T06:45:11.450Z,99405.75
2023-03-06T06:47:41.953Z,99409.72
2023-03-06T06:50:14.246Z,99404.34
2023-03-06T06:52:42.176Z,99408.63
2023-03-06T06:55:13.509Z,99402.94
2023-03-06T06:57:48.897Z,99404.81
2023-03-06T07:00:22.637Z,99398.34
2023-03-06T07:02:52.686Z,99396.16
2023-03-06T07:05:23.909Z,99394.75
2023-03-06T07:07:53.645Z,99386.38
2023-03-06T07:10:24.329Z,99384.16
2023-03-06T07:12:52.082Z,99390.53
2023-03-06T07:15:23.036Z,99397.50
2023-03-06T07:17:53.978Z,99386.16
2023-03-06T07:20:24.321Z,99385.50
2023-03-06T07:22:54.660Z,99389.50
2023-03-06T07:25:25.112Z,99391.25
2023-03-06T07:27:55.529Z,99389.53
2023-03-06T07:30:25.903Z,99390.03
2023-03-06T07:32:55.006Z,99390.38
2023-03-06T07:35:24.911Z,99392.44
2023-03-06T07:37:52.722Z,99391.84
2023-03-06T07:40:23.607Z,99393.41
2023-03-06T07:42:53.004Z,99400.88
2023-03-06T07:45:23.423Z,99394.09
2023-03-06T07:47:51.516Z,99388.91
2023-03-06T07:50:22.452Z,99389.06
2023-03-06T07:52:53.071Z,99383.84
2023-03-06T07:55:20.970Z,99390.22
2023-03-06T07:57:51.717Z,99387.53
2023-03-06T08:00:19.378Z,99382.63
2023-03-06T08:02:47.242Z,99380.91
2023-03-06T08:05:16.865Z,99375.72
2023-03-06T08:07:50.467Z,99383.16
2023-03-06T08:10:20.633Z,99382.22
2023-03-06T08:12:47.736Z,99378.94
2023-03-06T08:15:16.287Z,99376.69
2023-03-06T08:17:46.672Z,99373.72
2023-03-06T08:20:16.415Z,99374.69
2023-03-06T08:22:49.996Z,99367.84
2023-03-06T08:25:25.112Z,99365.66
2023-03-06T08:27:52.983Z,99362.81
2023-03-06T08:30:26.313Z,99348.91
2023-03-06T08:32:53.924Z,99356.47
2023-03-06T08:35:27.764Z,99369.31
2023-03-06T08:37:57.570Z,99361.25
2023-03-06T08:40:30.257Z,99354.75
2023-03-06T08:42:58.700Z,99348.69
2023-03-06T08:45:28.197Z,99346.28
2023-03-06T08:47:58.205Z,99346.91
2023-03-06T08:50:31.324Z,99342.66
2023-03-06T08:53:04.081Z,99354.66
2023-03-06T08:55:31.325Z,99352.13
2023-03-06T08:58:05.229Z,99356.91
2023-03-06T09:00:34.015Z,99342.84
2023-03-06T09:03:01.350Z,99343.28
2023-03-06T09:05:31.761Z,99342.69
2023-03-06T09:07:59.179Z,99333.19
2023-03-06T09:10:29.146Z,99337.19
2023-03-06T09:12:59.185Z,99334.94
2023-03-06T09:15:29.889Z,99339.72
2023-03-06T09:18:00.622Z,99333.22
2023-03-06T09:20:33.255Z,99333.69
2023-03-06T09:23:03.442Z,99335.28
2023-03-06T09:25:38.446Z,99330.34
2023-03-06T09:28:11.600Z,99321.19
2023-03-06T09:30:45.265Z,99326.25
2023-03-06T09:33:22.346Z,99313.59
2023-03-06T09:36:02.000Z,99324.84
2023-03-06T09:41:18.191Z,99324.19
2023-03-06T09:43:49.645Z,99318.03
2023-03-06T09:46:23.761Z,99322.00
2023-03-06T09:49:20.382Z,99315.03
2023-03-06T09:52:11.032Z,99318.19
2023-03-06T09:54:47.783Z,99322.50
2023-03-06T09:57:35.215Z,99319.78
2023-03-06T10:00:15.387Z,99312.19
2023-03-06T10:03:07.212Z,99313.28
2023-03-06T10:05:44.400Z,99307.41
2023-03-06T10:08:27.195Z,99290.47
2023-03-06T10:11:07.407Z,99303.78
2023-03-06T10:13:52.024Z,99295.69
2023-03-06T10:16:31.101Z,99297.78
2023-03-06T10:19:10.690Z,99289.19
2023-03-06T10:21:43.092Z,99289.69
2023-03-06T10:24:24.324Z,99290.97
2023-03-06T10:27:15.675Z,99283.69
2023-03-06T10:30:14.461Z,99278.75
2023-03-06T10:33:08.705Z,99267.03
2023-03-06T10:35:48.647Z,99267.03
2023-03-06T10:38:22.502Z,99264.03
2023-03-06T10:41:04.015Z,99259.13
2023-03-06T10:43:31.060Z,99252.66
2023-03-06T10:46:05.658Z,99242.34
2023-03-06T10:48:40.828Z,99246.59
2023-03-06T10:51:25.076Z,99245.81
2023-03-06T10:54:03.248Z,99235.03
2023-03-06T10:56:34.729Z,99240.44
2023-03-06T10:59:08.536Z,99231.56
2023-03-06T11:01:36.214Z,99225.41
2023-03-06T11:04:21.355Z,99218.09
2023-03-06T11:07:33.796Z,99219.69
2023-03-06T11:10:19.982Z,99215.41
2023-03-06T11:12:58.864Z,99218.09
2023-03-06T11:15:28.898Z,99218.09
2023-03-06T11:18:00.195Z,99223.50
2023-03-06T11:20:52.719Z,99212.72
2023-03-06T11:23:26.752Z,99209.56
2023-03-06T11:26:20.464Z,99210.03
2023-03-06T11:29:05.037Z,99209.56
2023-03-06T11:32:00.059Z,99195.00
2023-03-06T11:34:41.813Z,99189.59
2023-03-06T11:37:20.709Z,99187.25
2023-03-06T11:39:59.119Z,99189.12
2023-03-06T11:42:38.224Z,99187.53
2023-03-06T11:45:23.177Z,99181.69
2023-03-06T11:48:14.518Z,99175.19
2023-03-06T11:50:50.615Z,99170.13
2023-03-06T11:53:36.771Z,99170.94
2023-03-06T11:56:21.904Z,99159.34
2023-03-06T11:59:24.024Z,99163.50
2023-03-06T12:02:37.199Z,99160.00
2023-03-06T12:05:25.506Z,99150.03
2023-03-06T12:08:11.959Z,99157.00
2023-03-06T12:11:02.393Z,99144.66
2023-03-06T12:13:53.698Z,99139.25
2023-03-06T12:16:34.427Z,99139.56
2023-03-06T12:19:17.553Z,99127.56
2023-03-06T12:22:06.010Z,99131.38
2023-03-06T12:24:53.136Z,99126.78
2023-03-06T12:27:58.807Z,99125.97
2023-03-06T12:30:56.289Z,99119.00
2023-03-06T12:33:35.046Z,99113.94
2023-03-06T12:36:29.885Z,99118.22
2023-03-06T12:39:36.189Z,99114.25
2023-03-06T12:42:44.267Z,99112.66
2023-03-06T12:45:31.334Z,99107.28
2023-03-06T12:47:59.511Z,99105.72
2023-03-06T12:50:33.587Z,99116.47
2023-03-06T12:53:08.358Z,99112.22
2023-03-06T12:55:48.531Z,99120.28
2023-03-06T12:58:30.558Z,99101.44
2023-03-06T13:01:17.390Z,99102.53
2023-03-06T13:04:13.036Z,99101.75
2023-03-06T13:07:06.895Z,99102.53
2023-03-06T13:10:06.131Z,99103.34
2023-03-06T13:13:00.143Z,99100.66
2023-03-06T13:15:40.994Z,99103.19
2023-03-06T13:18:27.257Z,99100.50
2023-03-06T13:20:57.979Z,99103.19
2023-03-06T13:23:37.494Z,99102.72
2023-03-06T13:26:06.296Z,99100.66
2023-03-06T13:28:48.234Z,99106.84
2023-03-06T13:31:53.394Z,99101.31
2023-03-06T13:34:46.098Z,99108.28
2023-03-06T13:37:18.788Z,99105.09
2023-03-06T13:39:57.878Z,99097.34
2023-03-06T13:43:03.234Z,99089.62
2023-03-06T13:45:35.214Z,99098.00
2023-03-06T13:50:54.933Z,99110.19
2023-03-06T13:54:10.208Z,99106.38
2023-03-06T13:56:39.740Z,99095.63
2023-03-06T13:59:45.463Z,99094.19
2023-03-06T14:02:59.205Z,99088.66
2023-03-06T14:05:44.224Z,99092.59
2023-03-06T14:08:17.864Z,99111.78
2023-03-06T14:11:03.346Z,99098.31
2023-03-06T14:13:47.944Z,99099.44
2023-03-06T14:16:32.683Z,99108.59
2023-03-06T14:19:17.912Z,99109.72
2023-03-06T14:21:57.463Z,99104.66
2023-03-06T14:24:34.467Z,99105.28
2023-03-06T14:27:04.305Z,99096.09
2023-03-06T14:29:37.609Z,99106.06
2023-03-06T14:32:14.894Z,99104.00
2023-03-06T14:34:50.998Z,99098.19
2023-03-06T14:37:27.508Z,99099.25
2023-03-06T14:39:54.746Z,99098.81
2023-03-06T14:42:29.110Z,99093.72
2023-03-06T14:45:05.579Z,99086.31
2023-03-06T14:47:37.483Z,99096.28
2023-03-06T14:50:26.531Z,99095.81
2023-03-06T14:53:05.341Z,99094.53
2023-03-06T14:55:45.671Z,99083.78
2023-03-06T14:58:21.951Z,99079.81
2023-03-06T15:00:54.211Z,99085.81
2023-03-06T15:03:26.664Z,99074.25
2023-03-06T15:05:55.711Z,99082.00
2023-03-06T15:08:29.367Z,99072.03
2023-03-06T15:11:05.109Z,99078.06
2023-03-06T15:13:40.072Z,99085.97
2023-03-06T15:16:27.465Z,99069.34
2023-03-06T15:19:15.939Z,99074.72
2023-03-06T15:21:48.205Z,99072.53
2023-03-06T15:24:50.596Z,99072.53
2023-03-06T15:27:33.501Z,99079.47
2023-03-06T15:30:33.516Z,99070.31
2023-03-06T15:33:19.389Z,99063.19
2023-03-06T15:36:00.130Z,99066.97
2023-03-06T15:38:36.823Z,99068.09
2023-03-06T15:41:25.298Z,99071.41
2023-03-06T15:43:54.053Z,99071.59
2023-03-06T15:46:27.467Z,99068.41
2023-03-06T15:49:01.801Z,99073.63
2023-03-06T15:51:35.243Z,99069.81
2023-03-06T15:54:12.044Z,99079.78
2023-03-06T15:56:45.400Z,99078.72
2023-03-06T15:59:36.035Z,99087.22
2023-03-06T16:02:17.788Z,99088.97
2023-03-06T16:04:51.746Z,99092.16
2023-03-06T16:07:21.840Z,99096.41
2023-03-06T16:09:52.168Z,99094.34
2023-03-06T16:12:22.920Z,99103.03
2023-03-06T16:14:53.612Z,99113.50
2023-03-06T16:17:23.201Z,99111.59
2023-03-06T16:19:54.103Z,99110.03
2023-03-06T16:22:24.100Z,99098.16
2023-03-06T16:25:00.579Z,99104.31
2023-03-06T16:27:33.971Z,99107.34
2023-03-06T16:30:01.788Z,99108.91
2023-03-06T16:32:31.870Z,99108.91
2023-03-06T16:34:58.986Z,99106.22
2023-03-06T16:37:27.273Z,99104.66
2023-03-06T16:40:01.428Z,99099.72
2023-03-06T16:42:37.553Z,99105.09
2023-03-06T16:45:11.642Z,99100.50
2023-03-06T16:47:51.809Z,99106.38
2023-03-06T16:50:27.767Z,99104.47
2023-03-06T16:52:59.145Z,99103.38
2023-03-06T16:55:29.563Z,99100.69
2023-03-06T16:58:07.742Z,99096.09
2023-03-06T17:00:42.746Z,99093.09
2023-03-06T17:03:14.135Z,99092.31
2023-03-06T17:05:46.877Z,99087.72
2023-03-06T17:08:17.333Z,99091.50
2023-03-06T17:10:44.236Z,99093.09
2023-03-06T17:13:16.760Z,99094.69
2023-03-06T17:15:54.836Z,99093.87
2023-03-06T17:18:24.018Z,99096.88
2023-03-06T17:20:57.481Z,99100.06
2023-03-06T17:23:29.644Z,99100.84
2023-03-06T17:26:08.266Z,99100.84
2023-03-06T17:28:42.645Z,99107.00
2023-03-06T17:31:21.303Z,99110.19
2023-03-06T17:33:50.953Z,99108.13
2023-03-06T17:36:23.774Z,99117.47
2023-03-06T17:39:00.806Z,99117.31
2023-03-06T17:41:33.459Z,99116.19
2023-03-06T17:44:02.500Z,99126.16
2023-03-06T17:46:31.846Z,99123.13
2023-03-06T17:49:03.452Z,99118.88
2023-03-06T17:51:35.159Z,99110.81
2023-03-06T17:54:02.162Z,99103.06
2023-03-06T17:56:29.313Z,99103.84
2023-03-06T17:58:57.173Z,99096.88
2023-03-06T18:01:28.139Z,99096.09
2023-03-06T18:03:58.888Z,99100.69
2023-03-06T18:06:25.908Z,99113.81
2023-03-06T18:08:56.146Z,99107.78
2023-03-06T18:11:27.682Z,99108.56
2023-03-06T18:14:05.392Z,99115.06
2023-03-06T18:16:42.314Z,99120.94
2023-03-06T18:19:15.491Z,99126.16
2023-03-06T18:21:47.826Z,99135.78
2023-03-06T18:24:20.932Z,99123.94
2023-03-06T18:26:48.641Z,99138.97
2023-03-06T18:29:22.573Z,99131.56
2023-03-06T18:31:56.110Z,99133.94
2023-03-06T18:34:29.527Z,99137.09
2023-03-06T18:37:03.347Z,99133.28
2023-03-06T18:39:33.368Z,99133.00
2023-03-06T18:42:01.204Z,99134.25
2023-03-06T18:44:29.269Z,99139.78
2023-03-06T18:47:02.269Z,99133.78
2023-03-06T18:49:32.278Z,99126.97
2023-03-06T18:51:59.112Z,99131.72
2023-03-06T18:54:31.936Z,99141.81
2023-03-06T18:57:02.444Z,99131.84
2023-03-06T18:59:35.638Z,99141.19
2023-03-06T19:02:02.610Z,99132.00
2023-03-06T19:04:37.927Z,99137.09
2023-03-06T19:07:13.814Z,99135.19
2023-03-06T19:09:49.041Z,99136.75
2023-03-06T19:12:19.391Z,99132.94
2023-03-06T19:14:46.762Z,99132.94
2023-03-06T19:17:17.851Z,99136.91
2023-03-06T19:19:57.142Z,99137.25
2023-03-06T19:22:46.907Z,99138.50
2023-03-06T19:25:20.868Z,99142.44
2023-03-06T19:27:49.297Z,99138.66
2023-03-06T19:30:19.599Z,99138.16
2023-03-06T19:32:50.872Z,99138.31
2023-03-06T19:35:26.126Z,99133.41
2023-03-06T19:37:57.006Z,99139.72
2023-03-06T19:40:32.706Z,99140.66
2023-03-06T19:43:04.737Z,99142.72
2023-03-06T19:45:36.265Z,99146.34
2023-03-06T19:48:09.027Z,99146.19
2023-03-06T19:50:43.415Z,99147.44
2023-03-06T19:53:18.590Z,99141.91
2023-03-06T19:55:47.972Z,99143.66
2023-03-06T19:58:16.938Z,99140.63
2023-03-06T20:00:50.115Z,99146.16
2023-03-06T20:03:19.999Z,99143.91
2023-03-06T20:05:48.185Z,99154.06
2023-03-06T20:08:21.040Z,99158.31
2023-03-06T20:10:51.682Z,99163.06
2023-03-06T20:13:22.594Z,99169.72
2023-03-06T20:15:52.794Z,99161.31
2023-03-06T20:18:25.060Z,99159.09
2023-03-06T20:21:02.937Z,99156.06
2023-03-06T20:23:34.643Z,99158.47
2023-03-06T20:26:09.228Z,99149.56
2023-03-06T20:28:41.555Z,99151.62
2023-03-06T20:31:13.475Z,99159.06
2023-03-06T20:33:50.115Z,99160.31
2023-03-06T20:36:22.829Z,99176.16
2023-03-06T20:38:50.323Z,99180.91
2023-03-06T20:41:27.340Z,99176.31
2023-03-06T20:43:55.526Z,99197.88
2023-03-06T20:46:24.603Z,99193.87
2023-03-06T20:48:58.823Z,99190.06
2023-03-06T20:51:37.937Z,99193.22
2023-03-06T20:54:16.362Z,99202.56
2023-03-06T20:56:47.453Z,99204.94
2023-03-06T20:59:19.026Z,99203.50
2023-03-06T21:01:46.784Z,99195.09
2023-03-06T21:04:17.006Z,99200.63
2023-03-06T21:06:52.848Z,99199.19
2023-03-06T21:09:26.150Z,99188.41
2023-03-06T21:11:57.782Z,99194.59
2023-03-06T21:14:28.505Z,99185.72
2023-03-06T21:16:57.732Z,99195.72
2023-03-06T21:19:25.858Z,99188.75
2023-03-06T21:22:02.148Z,99189.69
2023-03-06T21:24:33.800Z,99188.13
2023-03-06T21:27:12.736Z,99185.28
2023-03-06T21:29:45.298Z,99187.53
2023-03-06T21:32:12.971Z,99187.38
2023-03-06T21:34:43.050Z,99192.28
2023-03-06T21:37:11.184Z,99190.56
2023-03-06T21:39:41.350Z,99180.13
2023-03-06T21:42:08.597Z,99180.75
2023-03-06T21:44:38.313Z,99181.09
2023-03-06T21:47:08.716Z,99171.75
2023-03-06T21:49:35.939Z,99178.91
2023-03-06T21:52:06.531Z,99173.81
2023-03-06T21:54:34.281Z,99172.56
2023-03-06T21:57:07.472Z,99166.69
2023-03-06T21:59:34.841Z,99163.56
2023-03-06T22:02:02.460Z,99161.97
2023-03-06T22:04:30.537Z,99164.97
2023-03-06T22:06:57.952Z,99158.03
2023-03-06T22:09:28.985Z,99166.41
2023-03-06T22:11:59.863Z,99168.66
2023-03-06T22:14:33.084Z,99173.53
2023-03-06T22:17:01.155Z,99177.37
2023-03-06T22:19:34.644Z,99182.28
2023-03-06T22:22:05.278Z,99186.91
2023-03-06T22:24:39.754Z,99194.16
2023-03-06T22:27:13.340Z,99188.94
2023-03-06T22:29:43.740Z,99174.38
2023-03-06T22:32:16.268Z,99170.09
2023-03-06T22:34:56.312Z,99172.34
2023-03-06T22:37:27.792Z,99173.59
2023-03-06T22:40:02.623Z,99168.03
2023-03-06T22:42:34.920Z,99163.59
2023-03-06T22:45:05.173Z,99169.94
2023-03-06T22:47:37.402Z,99163.00
2023-03-06T22:50:07.707Z,99163.13
2023-03-06T22:52:35.243Z,99160.44
2023-03-06T22:55:07.668Z,99158.41
2023-03-06T22:57:43.943Z,99147.16
2023-03-06T23:00:18.463Z,99160.16
2023-03-06T23:02:52.376Z,99166.19
2023-03-06T23:05:22.264Z,99150.03
2023-03-06T23:07:56.208Z,99164.72
2023-03-06T23:10:28.660Z,99164.28
2023-03-06T23:12:59.417Z,99160.81
2023-03-06T23:15:26.840Z,99164.59
2023-03-06T23:18:00.063Z,99175.38
2023-03-06T23:20:34.059Z,99184.53
2023-03-06T23:23:01.856Z,99189.12
2023-03-06T23:25:34.784Z,99195.31
2023-03-06T23:28:05.206Z,99202.94
2023-03-06T23:30:33.038Z,99200.22
2023-03-06T23:33:04.191Z,99201.34
2023-03-06T23:35:39.016Z,99200.87
2023-03-06T23:38:09.298Z,99201.97
2023-03-06T23:40:37.528Z,99200.37
2023-03-06T23:43:09.115Z,99188.03
2023-03-06T23:45:39.682Z,99189.59
2023-03-06T23:48:16.943Z,99195.66
2023-03-06T23:50:53.803Z,99192.47
2023-03-06T23:53:25.442Z,99190.91
2023-03-06T23:55:53.018Z,99195.50
2023-03-06T23:58:20.613Z,99190.91
